sensor_id;sensor_type;location;lat;lon;timestamp;temperature;humidity
3037;DHT22;1528;52.550;13.408;2023-05-08T00:02:14;10.90;22.20
3037;DHT22;1528;52.550;13.408;2023-05-08T00:05:00;11.00;21.80
3037;DHT22;1528;52.550;13.408;2023-05-08T00:07:46;11.00;21.80
3037;DHT22;1528;52.550;13.408;2023-05-08T00:10:35;10.90;21.90
3037;DHT22;1528;52.550;13.408;2023-05-08T00:13:21;10.80;21.90
3037;DHT22;1528;52.550;13.408;2023-05-08T00:16:07;10.90;22.10
3037;DHT22;1528;52.550;13.408;2023-05-08T00:18:54;10.90;22.00
3037;DHT22;1528;52.550;13.408;2023-05-08T00:21:40;10.80;21.80
3037;DHT22;1528;52.550;13.408;2023-05-08T00:24:25;10.90;21.70
3037;DHT22;1528;52.550;13.408;2023-05-08T00:27:12;10.70;22.00
3037;DHT22;1528;52.550;13.408;2023-05-08T00:29:58;10.50;22.30
3037;DHT22;1528;52.550;13.408;2023-05-08T00:32:44;10.60;22.60
3037;DHT22;1528;52.550;13.408;2023-05-08T00:35:30;10.60;22.50
3037;DHT22;1528;52.550;13.408;2023-05-08T00:38:16;10.70;22.30
3037;DHT22;1528;52.550;13.408;2023-05-08T00:41:02;10.60;22.60
3037;DHT22;1528;52.550;13.408;2023-05-08T00:43:49;10.50;22.60
3037;DHT22;1528;52.550;13.408;2023-05-08T00:46:34;10.40;23.00
3037;DHT22;1528;52.550;13.408;2023-05-08T00:49:20;10.40;23.00
3037;DHT22;1528;52.550;13.408;2023-05-08T00:52:05;10.40;22.80
3037;DHT22;1528;52.550;13.408;2023-05-08T00:54:52;10.50;22.50
3037;DHT22;1528;52.550;13.408;2023-05-08T00:57:38;10.30;22.60
3037;DHT22;1528;52.550;13.408;2023-05-08T01:00:26;10.20;22.70
3037;DHT22;1528;52.550;13.408;2023-05-08T01:03:12;10.40;22.60
3037;DHT22;1528;52.550;13.408;2023-05-08T01:05:58;10.30;22.40
3037;DHT22;1528;52.550;13.408;2023-05-08T01:08:44;10.30;22.60
3037;DHT22;1528;52.550;13.408;2023-05-08T01:11:35;10.30;22.60
3037;DHT22;1528;52.550;13.408;2023-05-08T01:14:28;10.30;22.80
3037;DHT22;1528;52.550;13.408;2023-05-08T01:17:23;10.40;22.40
3037;DHT22;1528;52.550;13.408;2023-05-08T01:20:29;10.20;22.50
3037;DHT22;1528;52.550;13.408;2023-05-08T01:33:17;10.20;22.50
3037;DHT22;1528;52.550;13.408;2023-05-08T01:36:16;10.20;22.60
3037;DHT22;1528;52.550;13.408;2023-05-08T01:39:11;10.20;22.60
3037;DHT22;1528;52.550;13.408;2023-05-08T01:42:03;10.00;22.80
3037;DHT22;1528;52.550;13.408;2023-05-08T01:52:42;10.00;22.90
3037;DHT22;1528;52.550;13.408;2023-05-08T01:55:32;9.90;23.80
3037;DHT22;1528;52.550;13.408;2023-05-08T01:58:19;10.00;22.90
3037;DHT22;1528;52.550;13.408;2023-05-08T02:01:07;9.80;23.70
3037;DHT22;1528;52.550;13.408;2023-05-08T02:03:54;9.80;24.20
3037;DHT22;1528;52.550;13.408;2023-05-08T02:06:42;9.70;24.40
3037;DHT22;1528;52.550;13.408;2023-05-08T02:09:30;9.70;24.30
3037;DHT22;1528;52.550;13.408;2023-05-08T02:12:16;9.70;24.20
3037;DHT22;1528;52.550;13.408;2023-05-08T02:15:03;9.50;24.50
3037;DHT22;1528;52.550;13.408;2023-05-08T02:17:50;9.60;24.40
3037;DHT22;1528;52.550;13.408;2023-05-08T02:20:38;9.60;24.20
3037;DHT22;1528;52.550;13.408;2023-05-08T02:23:25;9.50;24.30
3037;DHT22;1528;52.550;13.408;2023-05-08T02:26:14;9.50;24.50
3037;DHT22;1528;52.550;13.408;2023-05-08T02:29:01;9.50;24.30
3037;DHT22;1528;52.550;13.408;2023-05-08T02:31:48;9.70;24.50
3037;DHT22;1528;52.550;13.408;2023-05-08T02:34:35;9.40;24.50
3037;DHT22;1528;52.550;13.408;2023-05-08T02:37:22;9.40;25.00
3037;DHT22;1528;52.550;13.408;2023-05-08T02:40:09;9.30;24.80
3037;DHT22;1528;52.550;13.408;2023-05-08T02:42:57;9.20;24.90
3037;DHT22;1528;52.550;13.408;2023-05-08T02:45:47;9.40;24.70
3037;DHT22;1528;52.550;13.408;2023-05-08T02:48:37;9.50;24.30
3037;DHT22;1528;52.550;13.408;2023-05-08T02:51:25;9.40;24.50
3037;DHT22;1528;52.550;13.408;2023-05-08T02:54:16;9.40;24.60
3037;DHT22;1528;52.550;13.408;2023-05-08T02:57:12;9.30;24.20
3037;DHT22;1528;52.550;13.408;2023-05-08T03:00:03;9.20;24.50
3037;DHT22;1528;52.550;13.408;2023-05-08T03:02:53;9.10;24.70
3037;DHT22;1528;52.550;13.408;2023-05-08T03:05:51;9.10;24.80
3037;DHT22;1528;52.550;13.408;2023-05-08T03:08:39;9.20;24.50
3037;DHT22;1528;52.550;13.408;2023-05-08T03:11:30;9.10;24.60
3037;DHT22;1528;52.550;13.408;2023-05-08T03:14:21;9.30;24.60
3037;DHT22;1528;52.550;13.408;2023-05-08T03:17:13;9.10;24.40
3037;DHT22;1528;52.550;13.408;2023-05-08T03:20:02;9.00;24.70
3037;DHT22;1528;52.550;13.408;2023-05-08T03:22:50;8.90;24.90
3037;DHT22;1528;52.550;13.408;2023-05-08T03:25:40;9.00;25.30
3037;DHT22;1528;52.550;13.408;2023-05-08T03:28:27;9.20;24.60
3037;DHT22;1528;52.550;13.408;2023-05-08T03:31:14;9.20;24.60
3037;DHT22;1528;52.550;13.408;2023-05-08T03:34:03;9.10;24.30
3037;DHT22;1528;52.550;13.408;2023-05-08T03:36:49;9.20;24.50
3037;DHT22;1528;52.550;13.408;2023-05-08T03:39:35;9.20;25.20
3037;DHT22;1528;52.550;13.408;2023-05-08T03:42:22;9.20;24.50
3037;DHT22;1528;52.550;13.408;2023-05-08T03:45:09;9.20;24.60
3037;DHT22;1528;52.550;13.408;2023-05-08T03:47:55;9.00;25.00
3037;DHT22;1528;52.550;13.408;2023-05-08T03:50:42;9.00;25.10
3037;DHT22;1528;52.550;13.408;2023-05-08T03:53:29;8.90;25.40
3037;DHT22;1528;52.550;13.408;2023-05-08T03:56:15;8.90;25.10
3037;DHT22;1528;52.550;13.408;2023-05-08T03:59:08;9.10;25.20
3037;DHT22;1528;52.550;13.408;2023-05-08T04:02:06;9.10;25.40
3037;DHT22;1528;52.550;13.408;2023-05-08T04:04:58;9.20;25.10
3037;DHT22;1528;52.550;13.408;2023-05-08T04:07:51;9.00;24.90
3037;DHT22;1528;52.550;13.408;2023-05-08T04:10:41;9.00;25.40
3037;DHT22;1528;52.550;13.408;2023-05-08T04:13:30;9.10;25.40
3037;DHT22;1528;52.550;13.408;2023-05-08T04:16:19;9.10;25.20
3037;DHT22;1528;52.550;13.408;2023-05-08T04:19:09;9.00;25.40
3037;DHT22;1528;52.550;13.408;2023-05-08T04:21:58;9.10;25.40
3037;DHT22;1528;52.550;13.408;2023-05-08T04:24:47;9.20;25.20
3037;DHT22;1528;52.550;13.408;2023-05-08T04:27:34;9.30;25.10
3037;DHT22;1528;52.550;13.408;2023-05-08T04:30:20;9.40;24.60
3037;DHT22;1528;52.550;13.408;2023-05-08T04:33:06;9.40;24.10
3037;DHT22;1528;52.550;13.408;2023-05-08T04:35:53;9.30;24.40
3037;DHT22;1528;52.550;13.408;2023-05-08T04:38:38;9.40;24.40
3037;DHT22;1528;52.550;13.408;2023-05-08T04:41:26;9.50;24.10
3037;DHT22;1528;52.550;13.408;2023-05-08T04:44:11;9.50;24.50
3037;DHT22;1528;52.550;13.408;2023-05-08T04:46:57;9.60;24.20
3037;DHT22;1528;52.550;13.408;2023-05-08T04:49:43;9.50;23.70
3037;DHT22;1528;52.550;13.408;2023-05-08T04:52:28;9.60;23.60
3037;DHT22;1528;52.550;13.408;2023-05-08T04:55:14;9.60;23.60
3037;DHT22;1528;52.550;13.408;2023-05-08T04:58:01;9.60;23.40
3037;DHT22;1528;52.550;13.408;2023-05-08T05:00:46;9.60;23.50
3037;DHT22;1528;52.550;13.408;2023-05-08T05:03:32;9.60;23.40
3037;DHT22;1528;52.550;13.408;2023-05-08T05:06:20;9.70;23.40
3037;DHT22;1528;52.550;13.408;2023-05-08T05:09:06;9.90;22.90
3037;DHT22;1528;52.550;13.408;2023-05-08T05:11:52;9.80;23.10
3037;DHT22;1528;52.550;13.408;2023-05-08T05:14:39;9.70;23.00
3037;DHT22;1528;52.550;13.408;2023-05-08T05:17:24;10.10;22.20
3037;DHT22;1528;52.550;13.408;2023-05-08T05:20:11;9.90;22.50
3037;DHT22;1528;52.550;13.408;2023-05-08T05:22:57;9.90;22.20
3037;DHT22;1528;52.550;13.408;2023-05-08T05:25:43;9.90;22.60
3037;DHT22;1528;52.550;13.408;2023-05-08T05:28:29;10.00;21.80
3037;DHT22;1528;52.550;13.408;2023-05-08T05:31:16;10.10;21.40
3037;DHT22;1528;52.550;13.408;2023-05-08T05:34:02;10.10;21.30
3037;DHT22;1528;52.550;13.408;2023-05-08T05:36:47;10.20;21.20
3037;DHT22;1528;52.550;13.408;2023-05-08T05:42:14;10.30;20.80
3037;DHT22;1528;52.550;13.408;2023-05-08T05:45:00;10.40;21.00
3037;DHT22;1528;52.550;13.408;2023-05-08T05:47:47;10.40;20.70
3037;DHT22;1528;52.550;13.408;2023-05-08T05:50:34;10.20;21.00
3037;DHT22;1528;52.550;13.408;2023-05-08T05:53:21;10.30;20.90
3037;DHT22;1528;52.550;13.408;2023-05-08T05:56:07;10.30;21.10
3037;DHT22;1528;52.550;13.408;2023-05-08T05:58:52;10.50;20.60
3037;DHT22;1528;52.550;13.408;2023-05-08T06:01:38;10.60;20.50
3037;DHT22;1528;52.550;13.408;2023-05-08T06:04:25;10.60;20.40
3037;DHT22;1528;52.550;13.408;2023-05-08T06:07:10;10.60;20.80
3037;DHT22;1528;52.550;13.408;2023-05-08T06:09:56;10.70;20.20
3037;DHT22;1528;52.550;13.408;2023-05-08T06:12:42;10.70;20.20
3037;DHT22;1528;52.550;13.408;2023-05-08T06:15:27;10.70;20.10
3037;DHT22;1528;52.550;13.408;2023-05-08T06:18:13;10.70;19.80
3037;DHT22;1528;52.550;13.408;2023-05-08T06:21:00;10.80;19.80
3037;DHT22;1528;52.550;13.408;2023-05-08T06:23:46;10.90;19.30
3037;DHT22;1528;52.550;13.408;2023-05-08T06:26:31;10.90;19.10
3037;DHT22;1528;52.550;13.408;2023-05-08T06:29:17;11.10;18.50
3037;DHT22;1528;52.550;13.408;2023-05-08T06:32:03;11.10;18.20
3037;DHT22;1528;52.550;13.408;2023-05-08T06:34:49;11.20;18.10
3037;DHT22;1528;52.550;13.408;2023-05-08T06:37:36;11.30;17.80
3037;DHT22;1528;52.550;13.408;2023-05-08T06:40:21;11.20;17.60
3037;DHT22;1528;52.550;13.408;2023-05-08T06:43:08;11.30;17.70
3037;DHT22;1528;52.550;13.408;2023-05-08T06:45:53;11.40;17.30
3037;DHT22;1528;52.550;13.408;2023-05-08T06:48:39;11.50;16.90
3037;DHT22;1528;52.550;13.408;2023-05-08T06:51:24;11.50;17.00
3037;DHT22;1528;52.550;13.408;2023-05-08T06:54:12;11.60;16.70
3037;DHT22;1528;52.550;13.408;2023-05-08T06:56:57;11.70;16.10
3037;DHT22;1528;52.550;13.408;2023-05-08T06:59:43;11.80;15.80
3037;DHT22;1528;52.550;13.408;2023-05-08T07:02:28;11.90;15.90
3037;DHT22;1528;52.550;13.408;2023-05-08T07:05:14;12.00;16.40
3037;DHT22;1528;52.550;13.408;2023-05-08T07:08:01;12.20;15.20
3037;DHT22;1528;52.550;13.408;2023-05-08T07:10:47;12.30;15.70
3037;DHT22;1528;52.550;13.408;2023-05-08T07:13:33;12.60;15.00
3037;DHT22;1528;52.550;13.408;2023-05-08T07:16:25;12.80;14.10
3037;DHT22;1528;52.550;13.408;2023-05-08T07:19:10;12.90;13.30
3037;DHT22;1528;52.550;13.408;2023-05-08T07:21:56;13.00;12.30
3037;DHT22;1528;52.550;13.408;2023-05-08T07:24:41;13.00;12.60
3037;DHT22;1528;52.550;13.408;2023-05-08T07:27:28;13.20;12.70
3037;DHT22;1528;52.550;13.408;2023-05-08T07:30:14;13.40;12.40
3037;DHT22;1528;52.550;13.408;2023-05-08T07:33:00;13.40;11.70
3037;DHT22;1528;52.550;13.408;2023-05-08T07:35:46;13.30;11.30
3037;DHT22;1528;52.550;13.408;2023-05-08T07:38:32;13.20;11.50
3037;DHT22;1528;52.550;13.408;2023-05-08T07:41:19;13.20;11.60
3037;DHT22;1528;52.550;13.408;2023-05-08T07:44:09;13.30;11.40
3037;DHT22;1528;52.550;13.408;2023-05-08T07:46:54;13.50;11.20
3037;DHT22;1528;52.550;13.408;2023-05-08T07:49:40;13.50;10.80
3037;DHT22;1528;52.550;13.408;2023-05-08T07:52:26;13.50;10.50
3037;DHT22;1528;52.550;13.408;2023-05-08T07:55:11;13.70;9.50
3037;DHT22;1528;52.550;13.408;2023-05-08T07:57:57;13.80;9.60
3037;DHT22;1528;52.550;13.408;2023-05-08T08:00:44;14.00;9.80
3037;DHT22;1528;52.550;13.408;2023-05-08T08:03:30;14.00;9.30
3037;DHT22;1528;52.550;13.408;2023-05-08T08:06:16;14.10;8.60
3037;DHT22;1528;52.550;13.408;2023-05-08T08:09:01;14.20;8.80
3037;DHT22;1528;52.550;13.408;2023-05-08T08:11:47;14.10;8.30
3037;DHT22;1528;52.550;13.408;2023-05-08T08:14:32;14.20;7.90
3037;DHT22;1528;52.550;13.408;2023-05-08T08:17:20;14.40;7.90
3037;DHT22;1528;52.550;13.408;2023-05-08T08:20:06;14.40;7.00
3037;DHT22;1528;52.550;13.408;2023-05-08T08:22:52;14.50;6.50
3037;DHT22;1528;52.550;13.408;2023-05-08T08:25:37;14.50;6.80
3037;DHT22;1528;52.550;13.408;2023-05-08T08:28:23;14.60;6.60
3037;DHT22;1528;52.550;13.408;2023-05-08T08:31:09;14.60;6.60
3037;DHT22;1528;52.550;13.408;2023-05-08T08:33:56;14.60;6.60
3037;DHT22;1528;52.550;13.408;2023-05-08T08:36:41;14.80;6.40
3037;DHT22;1528;52.550;13.408;2023-05-08T08:39:30;15.00;5.80
3037;DHT22;1528;52.550;13.408;2023-05-08T08:42:18;14.90;5.70
3037;DHT22;1528;52.550;13.408;2023-05-08T08:45:04;15.10;5.90
3037;DHT22;1528;52.550;13.408;2023-05-08T08:47:51;15.20;5.50
3037;DHT22;1528;52.550;13.408;2023-05-08T08:50:41;15.40;5.20
3037;DHT22;1528;52.550;13.408;2023-05-08T08:53:32;15.50;5.40
3037;DHT22;1528;52.550;13.408;2023-05-08T08:56:20;15.50;5.20
3037;DHT22;1528;52.550;13.408;2023-05-08T08:59:08;15.70;4.70
3037;DHT22;1528;52.550;13.408;2023-05-08T09:01:57;15.70;4.50
3037;DHT22;1528;52.550;13.408;2023-05-08T09:04:48;15.80;3.50
3037;DHT22;1528;52.550;13.408;2023-05-08T09:07:36;15.80;3.80
3037;DHT22;1528;52.550;13.408;2023-05-08T09:10:23;16.00;3.00
3037;DHT22;1528;52.550;13.408;2023-05-08T09:13:09;16.10;2.60
3037;DHT22;1528;52.550;13.408;2023-05-08T09:15:56;16.20;2.90
3037;DHT22;1528;52.550;13.408;2023-05-08T09:18:41;16.30;2.30
3037;DHT22;1528;52.550;13.408;2023-05-08T09:21:27;16.30;1.60
3037;DHT22;1528;52.550;13.408;2023-05-08T09:24:15;16.50;1.70
3037;DHT22;1528;52.550;13.408;2023-05-08T09:27:00;16.50;1.50
3037;DHT22;1528;52.550;13.408;2023-05-08T09:29:58;16.50;1.50
3037;DHT22;1528;52.550;13.408;2023-05-08T09:32:44;16.70;2.30
3037;DHT22;1528;52.550;13.408;2023-05-08T09:35:35;16.70;2.00
3037;DHT22;1528;52.550;13.408;2023-05-08T09:38:37;16.90;1.70
3037;DHT22;1528;52.550;13.408;2023-05-08T09:41:24;16.80;1.60
3037;DHT22;1528;52.550;13.408;2023-05-08T09:44:09;17.30;1.30
3037;DHT22;1528;52.550;13.408;2023-05-08T09:47:11;17.10;1.00
3037;DHT22;1528;52.550;13.408;2023-05-08T09:49:58;17.30;1.00
3037;DHT22;1528;52.550;13.408;2023-05-08T09:52:45;17.30;1.00
3037;DHT22;1528;52.550;13.408;2023-05-08T09:55:45;17.40;1.00
3037;DHT22;1528;52.550;13.408;2023-05-08T09:58:38;17.60;1.00
3037;DHT22;1528;52.550;13.408;2023-05-08T10:01:29;17.50;1.00
3037;DHT22;1528;52.550;13.408;2023-05-08T10:04:15;17.60;1.10
3037;DHT22;1528;52.550;13.408;2023-05-08T10:07:01;17.80;1.10
3037;DHT22;1528;52.550;13.408;2023-05-08T10:09:57;17.90;1.00
3037;DHT22;1528;52.550;13.408;2023-05-08T10:12:43;18.00;1.00
3037;DHT22;1528;52.550;13.408;2023-05-08T10:15:30;18.00;1.00
3037;DHT22;1528;52.550;13.408;2023-05-08T10:18:16;18.10;1.00
3037;DHT22;1528;52.550;13.408;2023-05-08T10:21:05;18.00;1.00
3037;DHT22;1528;52.550;13.408;2023-05-08T10:23:54;18.20;1.00
3037;DHT22;1528;52.550;13.408;2023-05-08T10:26:42;18.30;1.00
3037;DHT22;1528;52.550;13.408;2023-05-08T10:29:32;18.30;1.00
3037;DHT22;1528;52.550;13.408;2023-05-08T10:32:21;18.50;1.00
3037;DHT22;1528;52.550;13.408;2023-05-08T10:35:09;18.60;1.00
3037;DHT22;1528;52.550;13.408;2023-05-08T10:37:55;18.60;1.00
3037;DHT22;1528;52.550;13.408;2023-05-08T10:40:41;18.80;1.00
3037;DHT22;1528;52.550;13.408;2023-05-08T10:43:28;18.90;1.00
3037;DHT22;1528;52.550;13.408;2023-05-08T10:46:17;19.10;1.00
3037;DHT22;1528;52.550;13.408;2023-05-08T10:49:13;19.10;1.00
3037;DHT22;1528;52.550;13.408;2023-05-08T10:52:11;19.50;1.00
3037;DHT22;1528;52.550;13.408;2023-05-08T10:55:21;20.10;1.00
3037;DHT22;1528;52.550;13.408;2023-05-08T10:58:11;20.30;1.00
3037;DHT22;1528;52.550;13.408;2023-05-08T11:01:11;20.30;1.00
3037;DHT22;1528;52.550;13.408;2023-05-08T11:03:58;20.40;1.00
3037;DHT22;1528;52.550;13.408;2023-05-08T11:06:46;20.40;1.00
3037;DHT22;1528;52.550;13.408;2023-05-08T11:09:46;20.60;1.00
3037;DHT22;1528;52.550;13.408;2023-05-08T11:12:32;20.60;1.00
3037;DHT22;1528;52.550;13.408;2023-05-08T11:15:34;20.80;1.00
3037;DHT22;1528;52.550;13.408;2023-05-08T11:18:21;21.00;1.00
3037;DHT22;1528;52.550;13.408;2023-05-08T11:21:18;21.30;1.00
3037;DHT22;1528;52.550;13.408;2023-05-08T11:24:10;22.50;1.00
3037;DHT22;1528;52.550;13.408;2023-05-08T11:26:55;24.20;1.00
3037;DHT22;1528;52.550;13.408;2023-05-08T11:29:41;25.00;1.00
3037;DHT22;1528;52.550;13.408;2023-05-08T11:32:58;25.90;1.00
3037;DHT22;1528;52.550;13.408;2023-05-08T11:35:56;26.90;1.00
3037;DHT22;1528;52.550;13.408;2023-05-08T11:38:43;26.70;1.00
3037;DHT22;1528;52.550;13.408;2023-05-08T11:41:49;27.00;1.00
3037;DHT22;1528;52.550;13.408;2023-05-08T11:44:35;28.00;1.00
3037;DHT22;1528;52.550;13.408;2023-05-08T11:47:21;29.20;1.00
3037;DHT22;1528;52.550;13.408;2023-05-08T11:50:10;29.30;1.00
3037;DHT22;1528;52.550;13.408;2023-05-08T11:52:55;28.90;1.00
3037;DHT22;1528;52.550;13.408;2023-05-08T11:55:41;28.40;1.00
3037;DHT22;1528;52.550;13.408;2023-05-08T11:58:29;28.50;1.00
3037;DHT22;1528;52.550;13.408;2023-05-08T12:01:18;29.00;1.00
3037;DHT22;1528;52.550;13.408;2023-05-08T12:04:05;32.20;1.00
3037;DHT22;1528;52.550;13.408;2023-05-08T12:06:56;35.60;1.00
3037;DHT22;1528;52.550;13.408;2023-05-08T12:09:41;39.60;1.00
3037;DHT22;1528;52.550;13.408;2023-05-08T12:12:37;42.40;1.00
3037;DHT22;1528;52.550;13.408;2023-05-08T12:15:27;44.00;1.00
3037;DHT22;1528;52.550;13.408;2023-05-08T12:18:14;46.80;1.00
3037;DHT22;1528;52.550;13.408;2023-05-08T12:21:03;48.30;1.00
3037;DHT22;1528;52.550;13.408;2023-05-08T12:23:49;49.30;1.00
3037;DHT22;1528;52.550;13.408;2023-05-08T12:26:36;49.70;1.00
3037;DHT22;1528;52.550;13.408;2023-05-08T12:29:22;50.10;1.00
3037;DHT22;1528;52.550;13.408;2023-05-08T12:32:10;50.80;1.00
3037;DHT22;1528;52.550;13.408;2023-05-08T12:34:56;52.00;1.00
3037;DHT22;1528;52.550;13.408;2023-05-08T12:37:43;53.10;1.00
3037;DHT22;1528;52.550;13.408;2023-05-08T12:40:31;53.80;1.00
3037;DHT22;1528;52.550;13.408;2023-05-08T12:43:17;54.20;1.00
3037;DHT22;1528;52.550;13.408;2023-05-08T12:46:03;54.00;1.00
3037;DHT22;1528;52.550;13.408;2023-05-08T12:48:59;53.20;1.00
3037;DHT22;1528;52.550;13.408;2023-05-08T12:51:45;53.40;1.00
3037;DHT22;1528;52.550;13.408;2023-05-08T12:54:33;53.20;1.00
3037;DHT22;1528;52.550;13.408;2023-05-08T12:57:19;53.10;1.00
3037;DHT22;1528;52.550;13.408;2023-05-08T13:00:06;50.20;1.00
3037;DHT22;1528;52.550;13.408;2023-05-08T13:02:52;46.30;1.00
3037;DHT22;1528;52.550;13.408;2023-05-08T13:05:42;43.00;1.00
3037;DHT22;1528;52.550;13.408;2023-05-08T13:08:29;41.30;1.00
3037;DHT22;1528;52.550;13.408;2023-05-08T13:11:27;39.90;1.00
3037;DHT22;1528;52.550;13.408;2023-05-08T13:14:14;39.90;1.00
3037;DHT22;1528;52.550;13.408;2023-05-08T13:17:03;40.30;1.00
3037;DHT22;1528;52.550;13.408;2023-05-08T13:19:49;41.00;1.00
3037;DHT22;1528;52.550;13.408;2023-05-08T13:22:36;42.00;1.00
3037;DHT22;1528;52.550;13.408;2023-05-08T13:25:22;42.60;1.00
3037;DHT22;1528;52.550;13.408;2023-05-08T13:28:08;43.30;1.00
3037;DHT22;1528;52.550;13.408;2023-05-08T13:30:54;44.60;1.00
3037;DHT22;1528;52.550;13.408;2023-05-08T13:33:39;46.10;1.00
3037;DHT22;1528;52.550;13.408;2023-05-08T13:36:25;48.00;1.00
3037;DHT22;1528;52.550;13.408;2023-05-08T13:39:13;48.80;1.00
3037;DHT22;1528;52.550;13.408;2023-05-08T13:41:58;48.10;1.00
3037;DHT22;1528;52.550;13.408;2023-05-08T13:44:44;48.50;1.00
3037;DHT22;1528;52.550;13.408;2023-05-08T13:47:30;47.10;1.00
3037;DHT22;1528;52.550;13.408;2023-05-08T13:50:17;48.40;1.00
3037;DHT22;1528;52.550;13.408;2023-05-08T13:53:04;49.10;1.00
3037;DHT22;1528;52.550;13.408;2023-05-08T13:55:51;50.40;1.00
3037;DHT22;1528;52.550;13.408;2023-05-08T13:58:37;50.60;1.00
3037;DHT22;1528;52.550;13.408;2023-05-08T14:01:23;49.90;1.00
3037;DHT22;1528;52.550;13.408;2023-05-08T14:04:09;50.30;1.00
3037;DHT22;1528;52.550;13.408;2023-05-08T14:06:55;48.70;1.00
3037;DHT22;1528;52.550;13.408;2023-05-08T14:09:40;51.50;1.00
3037;DHT22;1528;52.550;13.408;2023-05-08T14:12:27;51.20;1.00
3037;DHT22;1528;52.550;13.408;2023-05-08T14:15:13;51.30;1.00
3037;DHT22;1528;52.550;13.408;2023-05-08T14:17:59;52.70;1.00
3037;DHT22;1528;52.550;13.408;2023-05-08T14:20:44;55.30;1.00
3037;DHT22;1528;52.550;13.408;2023-05-08T14:23:30;56.00;1.00
3037;DHT22;1528;52.550;13.408;2023-05-08T14:26:16;56.30;1.00
3037;DHT22;1528;52.550;13.408;2023-05-08T14:29:02;54.90;1.00
3037;DHT22;1528;52.550;13.408;2023-05-08T14:31:48;56.10;1.00
3037;DHT22;1528;52.550;13.408;2023-05-08T14:34:34;56.90;1.00
3037;DHT22;1528;52.550;13.408;2023-05-08T14:37:20;56.70;1.00
3037;DHT22;1528;52.550;13.408;2023-05-08T14:40:08;57.10;1.00
3037;DHT22;1528;52.550;13.408;2023-05-08T14:42:53;57.20;1.00
3037;DHT22;1528;52.550;13.408;2023-05-08T14:45:40;56.50;1.00
3037;DHT22;1528;52.550;13.408;2023-05-08T14:48:26;56.60;1.00
3037;DHT22;1528;52.550;13.408;2023-05-08T14:51:12;57.00;1.00
3037;DHT22;1528;52.550;13.408;2023-05-08T14:53:57;57.00;1.00
3037;DHT22;1528;52.550;13.408;2023-05-08T14:56:43;56.90;1.00
3037;DHT22;1528;52.550;13.408;2023-05-08T14:59:29;56.60;1.00
3037;DHT22;1528;52.550;13.408;2023-05-08T15:02:16;56.20;1.00
3037;DHT22;1528;52.550;13.408;2023-05-08T15:05:04;56.20;1.00
3037;DHT22;1528;52.550;13.408;2023-05-08T15:07:49;55.50;1.00
3037;DHT22;1528;52.550;13.408;2023-05-08T15:10:35;54.20;1.00
3037;DHT22;1528;52.550;13.408;2023-05-08T15:13:21;51.00;1.00
3037;DHT22;1528;52.550;13.408;2023-05-08T15:16:06;47.00;1.00
3037;DHT22;1528;52.550;13.408;2023-05-08T15:18:53;44.10;1.00
3037;DHT22;1528;52.550;13.408;2023-05-08T15:21:39;41.40;1.00
3037;DHT22;1528;52.550;13.408;2023-05-08T15:24:25;39.10;1.00
3037;DHT22;1528;52.550;13.408;2023-05-08T15:27:10;37.50;1.00
3037;DHT22;1528;52.550;13.408;2023-05-08T15:29:56;36.50;1.00
3037;DHT22;1528;52.550;13.408;2023-05-08T15:32:41;35.80;1.00
3037;DHT22;1528;52.550;13.408;2023-05-08T15:35:28;35.10;1.00
3037;DHT22;1528;52.550;13.408;2023-05-08T15:38:16;34.10;1.00
3037;DHT22;1528;52.550;13.408;2023-05-08T15:41:02;33.40;1.00
3037;DHT22;1528;52.550;13.408;2023-05-08T15:43:47;33.00;1.00
3037;DHT22;1528;52.550;13.408;2023-05-08T15:46:32;32.60;1.00
3037;DHT22;1528;52.550;13.408;2023-05-08T15:49:18;32.20;1.00
3037;DHT22;1528;52.550;13.408;2023-05-08T15:52:10;31.40;1.00
3037;DHT22;1528;52.550;13.408;2023-05-08T15:54:56;31.00;1.00
3037;DHT22;1528;52.550;13.408;2023-05-08T15:57:41;30.70;1.00
3037;DHT22;1528;52.550;13.408;2023-05-08T16:00:27;30.40;1.00
3037;DHT22;1528;52.550;13.408;2023-05-08T16:03:13;30.10;1.00
3037;DHT22;1528;52.550;13.408;2023-05-08T16:05:59;29.70;1.00
3037;DHT22;1528;52.550;13.408;2023-05-08T16:08:46;29.60;1.00
3037;DHT22;1528;52.550;13.408;2023-05-08T16:11:32;29.10;1.00
3037;DHT22;1528;52.550;13.408;2023-05-08T16:14:17;28.90;1.00
3037;DHT22;1528;52.550;13.408;2023-05-08T16:17:03;28.40;1.00
3037;DHT22;1528;52.550;13.408;2023-05-08T16:19:49;28.20;1.00
3037;DHT22;1528;52.550;13.408;2023-05-08T16:22:35;27.80;1.00
3037;DHT22;1528;52.550;13.408;2023-05-08T16:25:22;27.50;1.00
3037;DHT22;1528;52.550;13.408;2023-05-08T16:28:08;27.30;1.00
3037;DHT22;1528;52.550;13.408;2023-05-08T16:30:53;27.00;1.00
3037;DHT22;1528;52.550;13.408;2023-05-08T16:33:39;26.70;1.00
3037;DHT22;1528;52.550;13.408;2023-05-08T16:36:25;26.60;1.00
3037;DHT22;1528;52.550;13.408;2023-05-08T16:39:11;26.20;1.00
3037;DHT22;1528;52.550;13.408;2023-05-08T16:41:58;25.80;1.00
3037;DHT22;1528;52.550;13.408;2023-05-08T16:44:43;25.60;1.00
3037;DHT22;1528;52.550;13.408;2023-05-08T16:47:29;25.50;1.00
3037;DHT22;1528;52.550;13.408;2023-05-08T16:50:14;25.30;1.00
3037;DHT22;1528;52.550;13.408;2023-05-08T16:53:00;25.10;1.00
3037;DHT22;1528;52.550;13.408;2023-05-08T16:55:46;24.90;1.00
3037;DHT22;1528;52.550;13.408;2023-05-08T16:58:33;24.50;1.00
3037;DHT22;1528;52.550;13.408;2023-05-08T17:01:18;24.30;1.00
3037;DHT22;1528;52.550;13.408;2023-05-08T17:04:04;24.10;1.00
3037;DHT22;1528;52.550;13.408;2023-05-08T17:06:49;24.00;1.00
3037;DHT22;1528;52.550;13.408;2023-05-08T17:09:35;23.90;1.00
3037;DHT22;1528;52.550;13.408;2023-05-08T17:12:21;23.70;1.00
3037;DHT22;1528;52.550;13.408;2023-05-08T17:15:08;23.50;1.00
3037;DHT22;1528;52.550;13.408;2023-05-08T17:17:54;23.30;1.00
3037;DHT22;1528;52.550;13.408;2023-05-08T17:20:39;23.20;1.00
3037;DHT22;1528;52.550;13.408;2023-05-08T17:23:25;23.10;1.00
3037;DHT22;1528;52.550;13.408;2023-05-08T17:26:11;22.90;1.00
3037;DHT22;1528;52.550;13.408;2023-05-08T17:28:57;22.70;1.00
3037;DHT22;1528;52.550;13.408;2023-05-08T17:31:44;22.50;1.00
3037;DHT22;1528;52.550;13.408;2023-05-08T17:34:29;22.30;1.00
3037;DHT22;1528;52.550;13.408;2023-05-08T17:37:14;22.00;1.00
3037;DHT22;1528;52.550;13.408;2023-05-08T17:40:00;21.90;1.00
3037;DHT22;1528;52.550;13.408;2023-05-08T17:42:45;21.70;1.00
3037;DHT22;1528;52.550;13.408;2023-05-08T17:45:31;21.80;1.00
3037;DHT22;1528;52.550;13.408;2023-05-08T17:48:18;21.70;1.00
3037;DHT22;1528;52.550;13.408;2023-05-08T17:51:04;21.50;1.00
3037;DHT22;1528;52.550;13.408;2023-05-08T17:53:49;21.20;1.00
3037;DHT22;1528;52.550;13.408;2023-05-08T17:56:35;20.70;1.00
3037;DHT22;1528;52.550;13.408;2023-05-08T17:59:21;20.60;1.00
3037;DHT22;1528;52.550;13.408;2023-05-08T18:02:07;20.20;1.00
3037;DHT22;1528;52.550;13.408;2023-05-08T18:04:54;20.20;1.00
3037;DHT22;1528;52.550;13.408;2023-05-08T18:07:40;20.00;1.00
3037;DHT22;1528;52.550;13.408;2023-05-08T18:10:25;20.00;1.00
3037;DHT22;1528;52.550;13.408;2023-05-08T18:13:11;19.90;1.00
3037;DHT22;1528;52.550;13.408;2023-05-08T18:15:56;19.70;1.00
3037;DHT22;1528;52.550;13.408;2023-05-08T18:18:42;19.60;1.00
3037;DHT22;1528;52.550;13.408;2023-05-08T18:21:29;19.50;1.00
3037;DHT22;1528;52.550;13.408;2023-05-08T18:24:14;19.20;1.00
3037;DHT22;1528;52.550;13.408;2023-05-08T18:27:00;19.20;1.00
3037;DHT22;1528;52.550;13.408;2023-05-08T18:29:45;19.00;1.00